sensor_id;sensor_type;location;lat;lon;timestamp;P1;durP1;ratioP1;P2;durP2;ratioP2
8716;SDS011;4395;48.554;8.820;2023-04-22T00:01:20;5.47;;;4.47;;
8716;SDS011;4395;48.554;8.820;2023-04-22T00:03:24;3.63;;;3.33;;
8716;SDS011;4395;48.554;8.820;2023-04-22T00:05:28;3.57;;;3.30;;
8716;SDS011;4395;48.554;8.820;2023-04-22T00:07:31;4.47;;;4.07;;
8716;SDS011;4395;48.554;8.820;2023-04-22T00:09:33;4.77;;;4.20;;
8716;SDS011;4395;48.554;8.820;2023-04-22T00:11:38;4.23;;;3.57;;
8716;SDS011;4395;48.554;8.820;2023-04-22T00:13:41;5.77;;;4.10;;
8716;SDS011;4395;48.554;8.820;2023-04-22T00:15:44;3.77;;;3.47;;
8716;SDS011;4395;48.554;8.820;2023-04-22T00:17:46;3.57;;;3.17;;
8716;SDS011;4395;48.554;8.820;2023-04-22T00:19:49;4.00;;;3.60;;
8716;SDS011;4395;48.554;8.820;2023-04-22T00:21:53;4.37;;;3.93;;
8716;SDS011;4395;48.554;8.820;2023-04-22T00:23:55;4.50;;;3.90;;
8716;SDS011;4395;48.554;8.820;2023-04-22T00:25:58;4.00;;;3.60;;
8716;SDS011;4395;48.554;8.820;2023-04-22T00:28:03;3.93;;;3.53;;
8716;SDS011;4395;48.554;8.820;2023-04-22T00:30:06;4.53;;;3.40;;
8716;SDS011;4395;48.554;8.820;2023-04-22T00:32:10;5.67;;;3.97;;
8716;SDS011;4395;48.554;8.820;2023-04-22T00:34:12;4.10;;;2.95;;
8716;SDS011;4395;48.554;8.820;2023-04-22T00:36:17;3.13;;;2.83;;
8716;SDS011;4395;48.554;8.820;2023-04-22T00:38:20;3.43;;;3.13;;
8716;SDS011;4395;48.554;8.820;2023-04-22T00:40:23;3.40;;;3.07;;
8716;SDS011;4395;48.554;8.820;2023-04-22T00:42:26;3.20;;;2.90;;
8716;SDS011;4395;48.554;8.820;2023-04-22T00:44:30;4.23;;;3.53;;
8716;SDS011;4395;48.554;8.820;2023-04-22T00:46:34;4.82;;;3.20;;
8716;SDS011;4395;48.554;8.820;2023-04-22T00:48:39;3.80;;;2.90;;
8716;SDS011;4395;48.554;8.820;2023-04-22T00:50:42;3.40;;;3.10;;
8716;SDS011;4395;48.554;8.820;2023-04-22T00:52:45;3.50;;;3.20;;
8716;SDS011;4395;48.554;8.820;2023-04-22T00:54:48;4.03;;;2.93;;
8716;SDS011;4395;48.554;8.820;2023-04-22T00:56:51;3.43;;;3.13;;
8716;SDS011;4395;48.554;8.820;2023-04-22T00:58:55;3.30;;;3.00;;
8716;SDS011;4395;48.554;8.820;2023-04-22T01:01:00;3.33;;;3.03;;
8716;SDS011;4395;48.554;8.820;2023-04-22T01:03:04;4.13;;;3.40;;
8716;SDS011;4395;48.554;8.820;2023-04-22T01:05:08;3.90;;;3.60;;
8716;SDS011;4395;48.554;8.820;2023-04-22T01:07:11;4.73;;;3.10;;
8716;SDS011;4395;48.554;8.820;2023-04-22T01:09:14;3.90;;;3.40;;
8716;SDS011;4395;48.554;8.820;2023-04-22T01:11:17;3.40;;;3.10;;
8716;SDS011;4395;48.554;8.820;2023-04-22T01:13:20;4.10;;;3.17;;
8716;SDS011;4395;48.554;8.820;2023-04-22T01:15:23;3.40;;;3.10;;
8716;SDS011;4395;48.554;8.820;2023-04-22T01:17:28;3.35;;;3.05;;
8716;SDS011;4395;48.554;8.820;2023-04-22T01:19:33;5.85;;;5.25;;
8716;SDS011;4395;48.554;8.820;2023-04-22T01:21:35;4.93;;;4.47;;
8716;SDS011;4395;48.554;8.820;2023-04-22T01:23:42;7.93;;;5.00;;
8716;SDS011;4395;48.554;8.820;2023-04-22T01:25:45;6.43;;;4.50;;
8716;SDS011;4395;48.554;8.820;2023-04-22T01:27:48;3.35;;;3.10;;
8716;SDS011;4395;48.554;8.820;2023-04-22T01:29:52;4.10;;;3.23;;
8716;SDS011;4395;48.554;8.820;2023-04-22T01:31:55;3.87;;;3.03;;
8716;SDS011;4395;48.554;8.820;2023-04-22T01:33:58;3.40;;;3.08;;
8716;SDS011;4395;48.554;8.820;2023-04-22T01:36:02;3.28;;;2.97;;
8716;SDS011;4395;48.554;8.820;2023-04-22T01:38:05;4.30;;;2.90;;
8716;SDS011;4395;48.554;8.820;2023-04-22T01:40:11;3.10;;;2.80;;
8716;SDS011;4395;48.554;8.820;2023-04-22T01:42:15;4.20;;;3.13;;
8716;SDS011;4395;48.554;8.820;2023-04-22T01:44:19;3.00;;;2.80;;
8716;SDS011;4395;48.554;8.820;2023-04-22T01:46:23;2.90;;;2.60;;
8716;SDS011;4395;48.554;8.820;2023-04-22T01:48:26;3.00;;;2.80;;
8716;SDS011;4395;48.554;8.820;2023-04-22T01:50:29;2.97;;;2.63;;
8716;SDS011;4395;48.554;8.820;2023-04-22T01:52:32;3.17;;;2.88;;
8716;SDS011;4395;48.554;8.820;2023-04-22T01:54:35;3.55;;;2.88;;
8716;SDS011;4395;48.554;8.820;2023-04-22T01:56:39;3.03;;;2.80;;
8716;SDS011;4395;48.554;8.820;2023-04-22T01:58:44;3.45;;;2.83;;
8716;SDS011;4395;48.554;8.820;2023-04-22T02:00:47;3.70;;;2.80;;
8716;SDS011;4395;48.554;8.820;2023-04-22T02:02:50;3.35;;;2.88;;
8716;SDS011;4395;48.554;8.820;2023-04-22T02:04:53;3.10;;;2.67;;
8716;SDS011;4395;48.554;8.820;2023-04-22T02:06:56;3.10;;;2.80;;
8716;SDS011;4395;48.554;8.820;2023-04-22T02:08:59;3.20;;;2.75;;
8716;SDS011;4395;48.554;8.820;2023-04-22T02:11:01;3.08;;;2.80;;
8716;SDS011;4395;48.554;8.820;2023-04-22T02:13:06;2.95;;;2.60;;
8716;SDS011;4395;48.554;8.820;2023-04-22T02:15:10;3.03;;;2.72;;
8716;SDS011;4395;48.554;8.820;2023-04-22T02:17:13;4.13;;;2.70;;
8716;SDS011;4395;48.554;8.820;2023-04-22T02:19:19;5.03;;;2.70;;
8716;SDS011;4395;48.554;8.820;2023-04-22T02:21:22;3.20;;;2.50;;
8716;SDS011;4395;48.554;8.820;2023-04-22T02:23:24;2.90;;;2.60;;
8716;SDS011;4395;48.554;8.820;2023-04-22T02:25:28;3.30;;;2.65;;
8716;SDS011;4395;48.554;8.820;2023-04-22T02:27:32;3.05;;;2.85;;
8716;SDS011;4395;48.554;8.820;2023-04-22T02:29:36;3.83;;;2.60;;
8716;SDS011;4395;48.554;8.820;2023-04-22T02:31:40;3.47;;;2.70;;
8716;SDS011;4395;48.554;8.820;2023-04-22T02:33:43;3.05;;;2.80;;
8716;SDS011;4395;48.554;8.820;2023-04-22T02:35:46;2.97;;;2.70;;
8716;SDS011;4395;48.554;8.820;2023-04-22T02:37:51;2.97;;;2.70;;
8716;SDS011;4395;48.554;8.820;2023-04-22T02:39:56;2.70;;;2.50;;
8716;SDS011;4395;48.554;8.820;2023-04-22T02:42:00;3.50;;;3.20;;
8716;SDS011;4395;48.554;8.820;2023-04-22T02:44:03;2.80;;;2.60;;
8716;SDS011;4395;48.554;8.820;2023-04-22T02:46:08;2.95;;;2.70;;
8716;SDS011;4395;48.554;8.820;2023-04-22T02:48:14;3.50;;;3.10;;
8716;SDS011;4395;48.554;8.820;2023-04-22T02:50:16;3.22;;;2.90;;
8716;SDS011;4395;48.554;8.820;2023-04-22T02:52:19;3.10;;;2.90;;
8716;SDS011;4395;48.554;8.820;2023-04-22T02:54:22;2.90;;;2.70;;
8716;SDS011;4395;48.554;8.820;2023-04-22T02:56:25;3.60;;;2.97;;
8716;SDS011;4395;48.554;8.820;2023-04-22T02:58:28;3.22;;;3.03;;
8716;SDS011;4395;48.554;8.820;2023-04-22T03:00:31;3.33;;;3.03;;
8716;SDS011;4395;48.554;8.820;2023-04-22T03:02:35;3.75;;;2.80;;
8716;SDS011;4395;48.554;8.820;2023-04-22T03:04:45;3.78;;;2.78;;
8716;SDS011;4395;48.554;8.820;2023-04-22T03:06:48;3.17;;;2.90;;
8716;SDS011;4395;48.554;8.820;2023-04-22T03:08:51;3.20;;;2.90;;
8716;SDS011;4395;48.554;8.820;2023-04-22T03:10:54;3.20;;;2.90;;
8716;SDS011;4395;48.554;8.820;2023-04-22T03:12:57;3.10;;;2.80;;
8716;SDS011;4395;48.554;8.820;2023-04-22T03:14:59;3.50;;;3.10;;
8716;SDS011;4395;48.554;8.820;2023-04-22T03:17:05;4.10;;;2.90;;
8716;SDS011;4395;48.554;8.820;2023-04-22T03:19:09;3.40;;;3.10;;
8716;SDS011;4395;48.554;8.820;2023-04-22T03:21:12;3.65;;;2.78;;
8716;SDS011;4395;48.554;8.820;2023-04-22T03:23:15;3.83;;;3.17;;
8716;SDS011;4395;48.554;8.820;2023-04-22T03:25:18;3.40;;;3.15;;
8716;SDS011;4395;48.554;8.820;2023-04-22T03:27:25;2.85;;;2.65;;
8716;SDS011;4395;48.554;8.820;2023-04-22T03:29:28;3.75;;;3.00;;
8716;SDS011;4395;48.554;8.820;2023-04-22T03:31:32;3.28;;;2.97;;
8716;SDS011;4395;48.554;8.820;2023-04-22T03:33:35;4.22;;;3.17;;
8716;SDS011;4395;48.554;8.820;2023-04-22T03:35:47;4.32;;;3.72;;
8716;SDS011;4395;48.554;8.820;2023-04-22T03:37:51;4.18;;;3.53;;
8716;SDS011;4395;48.554;8.820;2023-04-22T03:40:02;3.75;;;3.45;;
8716;SDS011;4395;48.554;8.820;2023-04-22T03:42:06;3.83;;;3.53;;
8716;SDS011;4395;48.554;8.820;2023-04-22T03:44:14;3.67;;;3.20;;
8716;SDS011;4395;48.554;8.820;2023-04-22T03:46:18;3.50;;;3.17;;
8716;SDS011;4395;48.554;8.820;2023-04-22T03:48:33;3.10;;;2.90;;
8716;SDS011;4395;48.554;8.820;2023-04-22T03:50:41;3.15;;;2.85;;
8716;SDS011;4395;48.554;8.820;2023-04-22T03:52:45;3.65;;;3.05;;
8716;SDS011;4395;48.554;8.820;2023-04-22T03:54:52;3.40;;;3.10;;
8716;SDS011;4395;48.554;8.820;2023-04-22T03:56:55;3.38;;;3.08;;
8716;SDS011;4395;48.554;8.820;2023-04-22T03:58:59;3.47;;;2.97;;
8716;SDS011;4395;48.554;8.820;2023-04-22T04:01:02;3.05;;;2.85;;
8716;SDS011;4395;48.554;8.820;2023-04-22T04:03:06;3.88;;;3.25;;
8716;SDS011;4395;48.554;8.820;2023-04-22T04:05:09;3.92;;;3.15;;
8716;SDS011;4395;48.554;8.820;2023-04-22T04:07:13;4.65;;;3.58;;
8716;SDS011;4395;48.554;8.820;2023-04-22T04:09:17;4.32;;;3.72;;
8716;SDS011;4395;48.554;8.820;2023-04-22T04:11:20;5.50;;;4.30;;
8716;SDS011;4395;48.554;8.820;2023-04-22T04:13:23;3.90;;;3.55;;
8716;SDS011;4395;48.554;8.820;2023-04-22T04:15:43;4.28;;;3.85;;
8716;SDS011;4395;48.554;8.820;2023-04-22T04:17:49;5.25;;;3.88;;
8716;SDS011;4395;48.554;8.820;2023-04-22T04:19:54;5.13;;;3.85;;
8716;SDS011;4395;48.554;8.820;2023-04-22T04:21:57;4.30;;;3.80;;
8716;SDS011;4395;48.554;8.820;2023-04-22T04:24:07;4.72;;;3.90;;
8716;SDS011;4395;48.554;8.820;2023-04-22T04:26:17;4.45;;;3.83;;
8716;SDS011;4395;48.554;8.820;2023-04-22T04:28:25;6.22;;;3.60;;
8716;SDS011;4395;48.554;8.820;2023-04-22T04:30:30;5.93;;;3.88;;
8716;SDS011;4395;48.554;8.820;2023-04-22T04:32:37;5.80;;;4.40;;
8716;SDS011;4395;48.554;8.820;2023-04-22T04:34:43;4.53;;;4.13;;
8716;SDS011;4395;48.554;8.820;2023-04-22T04:36:47;5.10;;;4.60;;
8716;SDS011;4395;48.554;8.820;2023-04-22T04:38:56;5.30;;;4.80;;
8716;SDS011;4395;48.554;8.820;2023-04-22T04:41:00;4.80;;;4.30;;
8716;SDS011;4395;48.554;8.820;2023-04-22T04:43:06;5.50;;;5.00;;
8716;SDS011;4395;48.554;8.820;2023-04-22T04:45:17;5.78;;;5.20;;
8716;SDS011;4395;48.554;8.820;2023-04-22T04:47:21;6.45;;;5.03;;
8716;SDS011;4395;48.554;8.820;2023-04-22T04:49:30;6.93;;;6.22;;
8716;SDS011;4395;48.554;8.820;2023-04-22T04:51:35;6.00;;;5.40;;
8716;SDS011;4395;48.554;8.820;2023-04-22T04:53:38;6.93;;;5.07;;
8716;SDS011;4395;48.554;8.820;2023-04-22T04:55:41;5.25;;;4.78;;
8716;SDS011;4395;48.554;8.820;2023-04-22T04:57:54;6.40;;;4.47;;
8716;SDS011;4395;48.554;8.820;2023-04-22T04:59:58;5.32;;;4.03;;
8716;SDS011;4395;48.554;8.820;2023-04-22T05:02:01;4.93;;;4.43;;
8716;SDS011;4395;48.554;8.820;2023-04-22T05:04:04;5.10;;;4.60;;
8716;SDS011;4395;48.554;8.820;2023-04-22T05:06:10;5.68;;;4.53;;
8716;SDS011;4395;48.554;8.820;2023-04-22T05:08:17;8.23;;;6.10;;
8716;SDS011;4395;48.554;8.820;2023-04-22T05:10:21;16.52;;;10.98;;
8716;SDS011;4395;48.554;8.820;2023-04-22T05:12:25;10.32;;;8.30;;
8716;SDS011;4395;48.554;8.820;2023-04-22T05:14:29;5.70;;;5.10;;
8716;SDS011;4395;48.554;8.820;2023-04-22T05:16:33;5.18;;;3.38;;
8716;SDS011;4395;48.554;8.820;2023-04-22T05:18:37;4.15;;;3.38;;
8716;SDS011;4395;48.554;8.820;2023-04-22T05:20:43;5.38;;;4.18;;
8716;SDS011;4395;48.554;8.820;2023-04-22T05:22:46;4.97;;;4.00;;
8716;SDS011;4395;48.554;8.820;2023-04-22T05:24:50;4.40;;;3.78;;
8716;SDS011;4395;48.554;8.820;2023-04-22T05:26:54;5.90;;;4.07;;
8716;SDS011;4395;48.554;8.820;2023-04-22T05:28:57;4.65;;;3.83;;
8716;SDS011;4395;48.554;8.820;2023-04-22T05:31:00;5.60;;;4.10;;
8716;SDS011;4395;48.554;8.820;2023-04-22T05:33:04;4.20;;;3.75;;
8716;SDS011;4395;48.554;8.820;2023-04-22T05:35:09;5.28;;;4.70;;
8716;SDS011;4395;48.554;8.820;2023-04-22T05:37:12;4.10;;;3.70;;
8716;SDS011;4395;48.554;8.820;2023-04-22T05:39:17;4.50;;;3.85;;
8716;SDS011;4395;48.554;8.820;2023-04-22T05:41:20;4.60;;;4.20;;
8716;SDS011;4395;48.554;8.820;2023-04-22T05:43:23;6.30;;;4.93;;
8716;SDS011;4395;48.554;8.820;2023-04-22T05:45:32;4.45;;;4.03;;
8716;SDS011;4395;48.554;8.820;2023-04-22T05:47:38;4.95;;;3.78;;
8716;SDS011;4395;48.554;8.820;2023-04-22T05:49:42;5.00;;;3.55;;
8716;SDS011;4395;48.554;8.820;2023-04-22T05:51:52;4.28;;;3.88;;
8716;SDS011;4395;48.554;8.820;2023-04-22T05:54:00;7.00;;;4.90;;
8716;SDS011;4395;48.554;8.820;2023-04-22T05:56:03;4.60;;;4.03;;
8716;SDS011;4395;48.554;8.820;2023-04-22T05:58:07;7.47;;;4.97;;
8716;SDS011;4395;48.554;8.820;2023-04-22T06:00:20;5.40;;;4.20;;
8716;SDS011;4395;48.554;8.820;2023-04-22T06:02:37;4.85;;;4.18;;
8716;SDS011;4395;48.554;8.820;2023-04-22T06:04:40;4.88;;;3.97;;
8716;SDS011;4395;48.554;8.820;2023-04-22T06:06:45;5.05;;;4.10;;
8716;SDS011;4395;48.554;8.820;2023-04-22T06:08:48;5.03;;;4.10;;
8716;SDS011;4395;48.554;8.820;2023-04-22T06:10:51;4.20;;;3.85;;
8716;SDS011;4395;48.554;8.820;2023-04-22T06:12:55;4.45;;;4.00;;
8716;SDS011;4395;48.554;8.820;2023-04-22T06:14:58;5.32;;;3.90;;
8716;SDS011;4395;48.554;8.820;2023-04-22T06:17:01;4.82;;;4.20;;
8716;SDS011;4395;48.554;8.820;2023-04-22T06:19:05;4.15;;;3.75;;
8716;SDS011;4395;48.554;8.820;2023-04-22T06:21:08;4.68;;;4.18;;
8716;SDS011;4395;48.554;8.820;2023-04-22T06:23:13;6.75;;;3.88;;
8716;SDS011;4395;48.554;8.820;2023-04-22T06:25:15;4.03;;;3.35;;
8716;SDS011;4395;48.554;8.820;2023-04-22T06:27:18;4.28;;;3.90;;
8716;SDS011;4395;48.554;8.820;2023-04-22T06:29:21;4.30;;;3.90;;
8716;SDS011;4395;48.554;8.820;2023-04-22T06:31:24;3.65;;;3.35;;
8716;SDS011;4395;48.554;8.820;2023-04-22T06:33:27;4.57;;;4.07;;
8716;SDS011;4395;48.554;8.820;2023-04-22T06:35:30;6.18;;;3.80;;
8716;SDS011;4395;48.554;8.820;2023-04-22T06:37:33;4.07;;;3.58;;
8716;SDS011;4395;48.554;8.820;2023-04-22T06:39:40;4.60;;;3.53;;
8716;SDS011;4395;48.554;8.820;2023-04-22T06:42:04;4.43;;;3.60;;
8716;SDS011;4395;48.554;8.820;2023-04-22T06:44:25;4.00;;;3.60;;
8716;SDS011;4395;48.554;8.820;2023-04-22T06:46:51;4.43;;;3.67;;
8716;SDS011;4395;48.554;8.820;2023-04-22T06:49:12;3.70;;;3.40;;
8716;SDS011;4395;48.554;8.820;2023-04-22T06:51:21;3.60;;;3.30;;
8716;SDS011;4395;48.554;8.820;2023-04-22T06:53:24;5.75;;;3.70;;
8716;SDS011;4395;48.554;8.820;2023-04-22T06:55:28;4.32;;;3.53;;
8716;SDS011;4395;48.554;8.820;2023-04-22T06:57:31;3.90;;;3.42;;
8716;SDS011;4395;48.554;8.820;2023-04-22T06:59:33;3.55;;;3.25;;
8716;SDS011;4395;48.554;8.820;2023-04-22T07:01:36;3.53;;;2.93;;
8716;SDS011;4395;48.554;8.820;2023-04-22T07:03:40;3.20;;;3.00;;
8716;SDS011;4395;48.554;8.820;2023-04-22T07:05:47;3.40;;;3.10;;
8716;SDS011;4395;48.554;8.820;2023-04-22T07:07:50;4.75;;;3.10;;
8716;SDS011;4395;48.554;8.820;2023-04-22T07:09:55;3.27;;;2.93;;
8716;SDS011;4395;48.554;8.820;2023-04-22T07:12:04;4.97;;;3.53;;
8716;SDS011;4395;48.554;8.820;2023-04-22T07:14:07;5.07;;;4.57;;
8716;SDS011;4395;48.554;8.820;2023-04-22T07:16:10;12.60;;;5.50;;
8716;SDS011;4395;48.554;8.820;2023-04-22T07:18:12;6.87;;;5.23;;
8716;SDS011;4395;48.554;8.820;2023-04-22T07:20:15;6.90;;;5.20;;
8716;SDS011;4395;48.554;8.820;2023-04-22T07:22:18;5.87;;;4.40;;
8716;SDS011;4395;48.554;8.820;2023-04-22T07:24:21;4.60;;;2.97;;
8716;SDS011;4395;48.554;8.820;2023-04-22T07:26:23;3.60;;;3.30;;
8716;SDS011;4395;48.554;8.820;2023-04-22T07:28:28;3.60;;;3.30;;
8716;SDS011;4395;48.554;8.820;2023-04-22T07:30:31;4.27;;;3.87;;
8716;SDS011;4395;48.554;8.820;2023-04-22T07:32:34;3.57;;;3.27;;
8716;SDS011;4395;48.554;8.820;2023-04-22T07:34:37;3.93;;;3.43;;
8716;SDS011;4395;48.554;8.820;2023-04-22T07:36:40;5.73;;;3.30;;
8716;SDS011;4395;48.554;8.820;2023-04-22T07:38:42;4.43;;;2.77;;
8716;SDS011;4395;48.554;8.820;2023-04-22T07:40:45;3.37;;;3.03;;
8716;SDS011;4395;48.554;8.820;2023-04-22T07:42:48;3.33;;;2.80;;
8716;SDS011;4395;48.554;8.820;2023-04-22T07:44:52;3.33;;;3.00;;
8716;SDS011;4395;48.554;8.820;2023-04-22T07:46:55;5.30;;;3.13;;
8716;SDS011;4395;48.554;8.820;2023-04-22T07:48:57;3.40;;;3.10;;
8716;SDS011;4395;48.554;8.820;2023-04-22T07:51:00;3.30;;;3.00;;
8716;SDS011;4395;48.554;8.820;2023-04-22T07:53:03;3.37;;;3.07;;
8716;SDS011;4395;48.554;8.820;2023-04-22T07:55:06;3.60;;;2.87;;
8716;SDS011;4395;48.554;8.820;2023-04-22T07:57:10;3.70;;;2.60;;
8716;SDS011;4395;48.554;8.820;2023-04-22T07:59:12;5.30;;;2.40;;
8716;SDS011;4395;48.554;8.820;2023-04-22T08:01:16;3.17;;;2.50;;
8716;SDS011;4395;48.554;8.820;2023-04-22T08:03:21;2.50;;;2.30;;
8716;SDS011;4395;48.554;8.820;2023-04-22T08:05:25;2.80;;;2.13;;
8716;SDS011;4395;48.554;8.820;2023-04-22T08:07:28;2.30;;;2.10;;
8716;SDS011;4395;48.554;8.820;2023-04-22T08:09:34;5.97;;;2.10;;
8716;SDS011;4395;48.554;8.820;2023-04-22T08:11:36;2.40;;;2.20;;
8716;SDS011;4395;48.554;8.820;2023-04-22T08:13:39;1.90;;;1.80;;
8716;SDS011;4395;48.554;8.820;2023-04-22T08:15:42;2.03;;;1.90;;
8716;SDS011;4395;48.554;8.820;2023-04-22T08:17:46;2.37;;;2.17;;
8716;SDS011;4395;48.554;8.820;2023-04-22T08:19:49;2.23;;;2.10;;
8716;SDS011;4395;48.554;8.820;2023-04-22T08:21:52;2.37;;;2.20;;
8716;SDS011;4395;48.554;8.820;2023-04-22T08:23:55;2.73;;;2.20;;
8716;SDS011;4395;48.554;8.820;2023-04-22T08:25:58;2.60;;;2.40;;
8716;SDS011;4395;48.554;8.820;2023-04-22T08:28:00;2.27;;;2.00;;
8716;SDS011;4395;48.554;8.820;2023-04-22T08:30:04;2.00;;;1.90;;
8716;SDS011;4395;48.554;8.820;2023-04-22T08:32:08;2.23;;;2.13;;
8716;SDS011;4395;48.554;8.820;2023-04-22T08:34:12;2.63;;;2.27;;
8716;SDS011;4395;48.554;8.820;2023-04-22T08:36:15;5.27;;;2.40;;
8716;SDS011;4395;48.554;8.820;2023-04-22T08:38:17;2.60;;;2.40;;
8716;SDS011;4395;48.554;8.820;2023-04-22T08:40:20;2.50;;;2.20;;
8716;SDS011;4395;48.554;8.820;2023-04-22T08:42:23;2.40;;;2.20;;
8716;SDS011;4395;48.554;8.820;2023-04-22T08:44:26;4.27;;;2.53;;
8716;SDS011;4395;48.554;8.820;2023-04-22T08:46:30;4.23;;;3.53;;
8716;SDS011;4395;48.554;8.820;2023-04-22T08:48:34;2.67;;;2.47;;
8716;SDS011;4395;48.554;8.820;2023-04-22T08:50:40;4.97;;;3.47;;
8716;SDS011;4395;48.554;8.820;2023-04-22T08:52:43;3.53;;;3.00;;
8716;SDS011;4395;48.554;8.820;2023-04-22T08:54:46;3.30;;;3.00;;
8716;SDS011;4395;48.554;8.820;2023-04-22T08:56:49;3.23;;;2.53;;
8716;SDS011;4395;48.554;8.820;2023-04-22T08:58:52;3.53;;;2.80;;
8716;SDS011;4395;48.554;8.820;2023-04-22T09:00:56;2.77;;;2.57;;
8716;SDS011;4395;48.554;8.820;2023-04-22T09:03:00;2.90;;;2.70;;
8716;SDS011;4395;48.554;8.820;2023-04-22T09:05:04;3.83;;;3.20;;
8716;SDS011;4395;48.554;8.820;2023-04-22T09:07:09;3.40;;;3.10;;
8716;SDS011;4395;48.554;8.820;2023-04-22T09:09:15;5.20;;;3.37;;
8716;SDS011;4395;48.554;8.820;2023-04-22T09:11:18;2.80;;;2.60;;
8716;SDS011;4395;48.554;8.820;2023-04-22T09:13:21;2.70;;;2.50;;
8716;SDS011;4395;48.554;8.820;2023-04-22T09:15:25;4.93;;;3.20;;
8716;SDS011;4395;48.554;8.820;2023-04-22T09:17:31;4.67;;;2.30;;
8716;SDS011;4395;48.554;8.820;2023-04-22T09:19:35;4.97;;;2.77;;
8716;SDS011;4395;48.554;8.820;2023-04-22T09:21:38;3.13;;;2.30;;
8716;SDS011;4395;48.554;8.820;2023-04-22T09:23:47;4.37;;;3.10;;
8716;SDS011;4395;48.554;8.820;2023-04-22T09:25:50;3.10;;;2.80;;
8716;SDS011;4395;48.554;8.820;2023-04-22T09:27:53;3.00;;;2.80;;
8716;SDS011;4395;48.554;8.820;2023-04-22T09:29:57;3.70;;;3.40;;
8716;SDS011;4395;48.554;8.820;2023-04-22T09:32:04;2.20;;;1.80;;
8716;SDS011;4395;48.554;8.820;2023-04-22T09:34:12;2.30;;;1.50;;
8716;SDS011;4395;48.554;8.820;2023-04-22T09:36:15;2.60;;;2.38;;
8716;SDS011;4395;48.554;8.820;2023-04-22T09:38:18;3.57;;;2.30;;
8716;SDS011;4395;48.554;8.820;2023-04-22T09:40:23;2.40;;;2.20;;
8716;SDS011;4395;48.554;8.820;2023-04-22T09:42:26;2.37;;;2.10;;
8716;SDS011;4395;48.554;8.820;2023-04-22T09:44:29;2.77;;;2.20;;
8716;SDS011;4395;48.554;8.820;2023-04-22T09:46:35;2.50;;;2.33;;
8716;SDS011;4395;48.554;8.820;2023-04-22T09:48:40;5.20;;;2.60;;
8716;SDS011;4395;48.554;8.820;2023-04-22T09:50:44;3.87;;;2.73;;
8716;SDS011;4395;48.554;8.820;2023-04-22T09:52:53;5.30;;;3.10;;
8716;SDS011;4395;48.554;8.820;2023-04-22T09:54:57;4.63;;;2.88;;
8716;SDS011;4395;48.554;8.820;2023-04-22T09:57:01;3.00;;;2.70;;
8716;SDS011;4395;48.554;8.820;2023-04-22T09:59:05;3.10;;;2.80;;
8716;SDS011;4395;48.554;8.820;2023-04-22T10:01:09;5.17;;;2.40;;
8716;SDS011;4395;48.554;8.820;2023-04-22T10:03:12;3.03;;;2.50;;
8716;SDS011;4395;48.554;8.820;2023-04-22T10:05:15;3.53;;;2.50;;
8716;SDS011;4395;48.554;8.820;2023-04-22T10:07:18;2.90;;;2.20;;
8716;SDS011;4395;48.554;8.820;2023-04-22T10:09:22;3.30;;;2.37;;
8716;SDS011;4395;48.554;8.820;2023-04-22T10:11:26;2.37;;;2.17;;
8716;SDS011;4395;48.554;8.820;2023-04-22T10:13:30;2.43;;;2.23;;
8716;SDS011;4395;48.554;8.820;2023-04-22T10:15:35;1.90;;;1.80;;
8716;SDS011;4395;48.554;8.820;2023-04-22T10:17:40;3.50;;;2.20;;
8716;SDS011;4395;48.554;8.820;2023-04-22T10:19:45;2.87;;;2.20;;
8716;SDS011;4395;48.554;8.820;2023-04-22T10:21:50;3.43;;;2.53;;
8716;SDS011;4395;48.554;8.820;2023-04-22T10:23:57;2.40;;;2.20;;
8716;SDS011;4395;48.554;8.820;2023-04-22T10:26:00;2.87;;;2.20;;
8716;SDS011;4395;48.554;8.820;2023-04-22T10:28:03;2.50;;;2.30;;
8716;SDS011;4395;48.554;8.820;2023-04-22T10:30:09;4.43;;;2.37;;
8716;SDS011;4395;48.554;8.820;2023-04-22T10:32:23;3.43;;;2.30;;
8716;SDS011;4395;48.554;8.820;2023-04-22T10:34:27;3.90;;;2.63;;
8716;SDS011;4395;48.554;8.820;2023-04-22T10:36:32;4.17;;;2.40;;
8716;SDS011;4395;48.554;8.820;2023-04-22T10:38:35;2.70;;;1.90;;
8716;SDS011;4395;48.554;8.820;2023-04-22T10:43:00;4.50;;;2.40;;
8716;SDS011;4395;48.554;8.820;2023-04-22T10:45:04;2.47;;;2.13;;
8716;SDS011;4395;48.554;8.820;2023-04-22T10:47:09;2.10;;;1.90;;
8716;SDS011;4395;48.554;8.820;2023-04-22T10:49:12;2.10;;;1.90;;
8716;SDS011;4395;48.554;8.820;2023-04-22T10:51:37;2.13;;;1.73;;
8716;SDS011;4395;48.554;8.820;2023-04-22T10:53:40;2.27;;;2.00;;
8716;SDS011;4395;48.554;8.820;2023-04-22T10:55:48;3.17;;;1.83;;
8716;SDS011;4395;48.554;8.820;2023-04-22T10:57:52;2.30;;;1.93;;
8716;SDS011;4395;48.554;8.820;2023-04-22T10:59:56;4.73;;;2.10;;
8716;SDS011;4395;48.554;8.820;2023-04-22T11:01:59;3.80;;;2.13;;
8716;SDS011;4395;48.554;8.820;2023-04-22T11:06:33;3.67;;;1.97;;
8716;SDS011;4395;48.554;8.820;2023-04-22T11:08:36;3.77;;;1.70;;
8716;SDS011;4395;48.554;8.820;2023-04-22T11:10:39;2.63;;;1.90;;
8716;SDS011;4395;48.554;8.820;2023-04-22T11:12:45;1.63;;;1.53;;
8716;SDS011;4395;48.554;8.820;2023-04-22T11:14:50;3.00;;;1.80;;
8716;SDS011;4395;48.554;8.820;2023-04-22T11:16:54;2.30;;;2.10;;
8716;SDS011;4395;48.554;8.820;2023-04-22T11:18:57;2.60;;;1.87;;
8716;SDS011;4395;48.554;8.820;2023-04-22T11:21:01;2.03;;;1.93;;
8716;SDS011;4395;48.554;8.820;2023-04-22T11:23:08;4.40;;;2.30;;
8716;SDS011;4395;48.554;8.820;2023-04-22T11:25:11;2.03;;;1.80;;
8716;SDS011;4395;48.554;8.820;2023-04-22T11:27:14;2.57;;;1.70;;
8716;SDS011;4395;48.554;8.820;2023-04-22T11:29:26;4.00;;;1.40;;
8716;SDS011;4395;48.554;8.820;2023-04-22T11:31:29;1.77;;;1.67;;
8716;SDS011;4395;48.554;8.820;2023-04-22T11:33:32;4.50;;;2.00;;
8716;SDS011;4395;48.554;8.820;2023-04-22T11:35:35;3.83;;;1.63;;
8716;SDS011;4395;48.554;8.820;2023-04-22T11:37:39;1.73;;;1.50;;
8716;SDS011;4395;48.554;8.820;2023-04-22T11:39:44;2.57;;;1.90;;
8716;SDS011;4395;48.554;8.820;2023-04-22T11:42:07;4.67;;;1.47;;
8716;SDS011;4395;48.554;8.820;2023-04-22T11:44:12;1.90;;;1.70;;
8716;SDS011;4395;48.554;8.820;2023-04-22T11:46:15;2.30;;;1.50;;
8716;SDS011;4395;48.554;8.820;2023-04-22T11:48:30;2.57;;;1.57;;
8716;SDS011;4395;48.554;8.820;2023-04-22T11:50:33;1.57;;;1.47;;
8716;SDS011;4395;48.554;8.820;2023-04-22T11:52:44;2.40;;;1.83;;
8716;SDS011;4395;48.554;8.820;2023-04-22T11:54:50;4.13;;;1.70;;
8716;SDS011;4395;48.554;8.820;2023-04-22T11:56:53;3.73;;;1.80;;
8716;SDS011;4395;48.554;8.820;2023-04-22T11:58:56;1.97;;;1.70;;
8716;SDS011;4395;48.554;8.820;2023-04-22T12:00:59;2.57;;;1.80;;
8716;SDS011;4395;48.554;8.820;2023-04-22T12:03:02;2.90;;;1.70;;
8716;SDS011;4395;48.554;8.820;2023-04-22T12:05:08;2.73;;;1.90;;
8716;SDS011;4395;48.554;8.820;2023-04-22T12:07:11;2.60;;;1.60;;
8716;SDS011;4395;48.554;8.820;2023-04-22T12:09:16;2.43;;;1.50;;
8716;SDS011;4395;48.554;8.820;2023-04-22T12:11:20;2.37;;;1.70;;
8716;SDS011;4395;48.554;8.820;2023-04-22T12:13:24;3.80;;;2.40;;
8716;SDS011;4395;48.554;8.820;2023-04-22T12:15:36;1.60;;;1.50;;
8716;SDS011;4395;48.554;8.820;2023-04-22T12:17:43;4.03;;;1.73;;
8716;SDS011;4395;48.554;8.820;2023-04-22T12:19:46;3.60;;;1.67;;
8716;SDS011;4395;48.554;8.820;2023-04-22T12:21:49;2.43;;;1.70;;
8716;SDS011;4395;48.554;8.820;2023-04-22T12:23:52;5.27;;;1.83;;
8716;SDS011;4395;48.554;8.820;2023-04-22T12:25:55;2.50;;;1.70;;
8716;SDS011;4395;48.554;8.820;2023-04-22T12:28:00;3.13;;;1.77;;
8716;SDS011;4395;48.554;8.820;2023-04-22T12:30:04;3.67;;;1.90;;
8716;SDS011;4395;48.554;8.820;2023-04-22T12:32:07;2.47;;;1.60;;
8716;SDS011;4395;48.554;8.820;2023-04-22T12:34:10;2.67;;;1.80;;
8716;SDS011;4395;48.554;8.820;2023-04-22T12:36:13;2.77;;;1.70;;
8716;SDS011;4395;48.554;8.820;2023-04-22T12:38:16;3.57;;;1.90;;
8716;SDS011;4395;48.554;8.820;2023-04-22T12:40:19;2.53;;;1.60;;
8716;SDS011;4395;48.554;8.820;2023-04-22T12:42:22;2.93;;;1.83;;
8716;SDS011;4395;48.554;8.820;2023-04-22T12:44:26;1.97;;;1.70;;
8716;SDS011;4395;48.554;8.820;2023-04-22T12:46:29;3.37;;;2.70;;
8716;SDS011;4395;48.554;8.820;2023-04-22T12:48:31;6.03;;;3.57;;
8716;SDS011;4395;48.554;8.820;2023-04-22T12:50:36;5.70;;;4.00;;
8716;SDS011;4395;48.554;8.820;2023-04-22T12:52:38;3.50;;;1.83;;
8716;SDS011;4395;48.554;8.820;2023-04-22T12:54:41;2.00;;;1.80;;
8716;SDS011;4395;48.554;8.820;2023-04-22T12:56:44;3.07;;;1.87;;
8716;SDS011;4395;48.554;8.820;2023-04-22T12:58:48;3.13;;;1.60;;